M/T Pazar — TCMC — position and weather

sailwx.info

Track history (hours):
 
Tides and Currents Weather Stations Pressure Air Temp Water Temp Dewpoint Dewpoint Depression Visibility Wind Speed Wind Dir Waves Ship Positions

M/T Pazar

Last reported at 2014-Dec-18 09:33 UTC. Time now 2014-Dec-20 21:35 UTC.
Position N 40°60' E 028°60'.

Length 85 m; draft 3.5 m.

Type: Ship (hazmat cat B). MMSI: 271000251.

Date/timePositionNaut miles runAvg speedWind from/ knotsBaromVisibWave heightAir tempDewpointWater temp
2014-Dec-18 09:33N 40°60' E 028°60'5 0.2
2014-Dec-17 12:33N 40°58' E 028°53'27210.4
2014-Dec-16 10:16N 37°54' E 024°33'1211.0
2014-Dec-16 09:12N 37°46' E 024°23'1010.8
2014-Dec-16 08:18N 37°39' E 024°14'811.5
2014-Dec-16 07:34N 37°31' E 024°09'1611.3
2014-Dec-16 06:08N 37°18' E 023°57'3311.5
2014-Dec-16 03:15N 36°50' E 023°35'811.1
2014-Dec-16 02:31N 36°43' E 023°29'  
Track history (hours):
 
Tides and Currents Weather Stations Pressure Air Temp Water Temp Dewpoint Dewpoint Depression Visibility Wind Speed Wind Dir Waves Ship Positions

M/T Pazar

Last reported at 2014-Dec-18 09:33 UTC. Time now 2014-Dec-20 21:35 UTC.
Position N 40°60' E 028°60'.

Length 85 m; draft 3.5 m.

Type: Ship (hazmat cat B). MMSI: 271000251.

Date/timePositionNaut miles runAvg speedWind from/ knotsBaromVisibWave heightAir tempDewpointWater temp
2014-Dec-18 09:33N 40°60' E 028°60'5 0.2
2014-Dec-17 12:33N 40°58' E 028°53'27210.4
2014-Dec-16 10:16N 37°54' E 024°33'1211.0
2014-Dec-16 09:12N 37°46' E 024°23'1010.8
2014-Dec-16 08:18N 37°39' E 024°14'811.5
2014-Dec-16 07:34N 37°31' E 024°09'1611.3
2014-Dec-16 06:08N 37°18' E 023°57'3311.5
2014-Dec-16 03:15N 36°50' E 023°35'811.1
2014-Dec-16 02:31N 36°43' E 023°29'  

Dump ship's entire track history